Time;durP1;ratioP1;P1;durP2;ratioP2;P2;SDS_P1;SDS_P2;PMS_P1;PMS_P2;Temp;Humidity;BMP_temperature;BMP_pressure;BME280_temperature;BME280_humidity;BME280_pressure;Samples;Min_cycle;Max_cycle;Signal;HPM_P1;HPM_P2
2023/10/30 00:05:49;;;;;;;8.82;6.43;;;15.10;88.80;;;;;;12708649;28;20036;-73
2023/10/30 00:11:51;;;;;;;7.63;6.38;;;15.10;88.80;;;;;;12708314;28;20043;-73
2023/10/30 00:17:52;;;;;;;7.82;5.72;;;15.00;88.90;;;;;;12707887;28;20028;-73
2023/10/30 00:23:54;;;;;;;9.98;8.57;;;15.00;88.90;;;;;;12707471;28;20233;-73
2023/10/30 00:29:56;;;;;;;9.15;6.93;;;15.00;89.00;;;;;;12707475;28;20031;-73
2023/10/30 00:35:58;;;;;;;7.75;6.53;;;15.00;89.00;;;;;;12707194;28;20031;-73
2023/10/30 00:42:00;;;;;;;9.73;7.88;;;15.00;89.00;;;;;;12705663;28;20024;-73
2023/10/30 00:48:01;;;;;;;8.77;6.07;;;15.00;88.90;;;;;;12706290;28;20251;-73
2023/10/30 00:54:03;;;;;;;10.65;6.55;;;14.90;89.10;;;;;;12706348;28;20031;-73
2023/10/30 01:00:06;;;;;;;7.80;5.60;;;14.90;89.00;;;;;;12705436;28;20351;-73
2023/10/30 01:06:08;;;;;;;9.68;7.07;;;14.80;89.10;;;;;;12704282;28;20039;-74
2023/10/30 01:12:09;;;;;;;6.70;5.45;;;14.90;89.10;;;;;;12704403;28;20039;-73
2023/10/30 01:18:11;;;;;;;8.88;5.13;;;15.00;89.00;;;;;;12705273;28;20031;-73
2023/10/30 01:24:13;;;;;;;9.95;7.47;;;15.00;89.00;;;;;;12705191;28;20451;-73
2023/10/30 01:30:15;;;;;;;15.18;9.23;;;15.00;89.00;;;;;;12703906;28;20027;-72
2023/10/30 01:36:17;;;;;;;11.50;6.75;;;14.80;88.80;;;;;;12637650;22;20453;-72
2023/10/30 01:42:19;;;;;;;8.25;5.97;;;14.70;88.90;;;;;;12554067;28;20466;-73
2023/10/30 01:48:20;;;;;;;6.85;5.47;;;14.70;89.10;;;;;;12536796;28;20344;-73
2023/10/30 01:54:22;;;;;;;7.35;5.05;;;14.80;89.10;;;;;;12553884;28;20040;-72
2023/10/30 02:00:24;;;;;;;8.45;5.90;;;14.90;89.10;;;;;;12535751;28;20040;-73
2023/10/30 02:06:27;;;;;;;8.05;5.40;;;14.90;89.10;;;;;;12535786;28;20059;-73
2023/10/30 02:12:28;;;;;;;6.72;4.90;;;14.90;89.10;;;;;;12535682;28;20341;-73
2023/10/30 02:18:30;;;;;;;7.05;4.38;;;14.90;89.10;;;;;;12522843;28;20043;-73
2023/10/30 02:24:32;;;;;;;7.90;4.85;;;14.90;89.10;;;;;;12563403;28;20029;-73
2023/10/30 02:30:34;;;;;;;6.47;4.03;;;14.90;89.10;;;;;;12528355;28;20508;-73
2023/10/30 02:36:35;;;;;;;7.90;4.95;;;14.80;89.10;;;;;;12544323;28;20033;-73
2023/10/30 02:42:38;;;;;;;5.72;3.55;;;14.80;89.00;;;;;;12561811;28;20033;-73
2023/10/30 02:48:40;;;;;;;6.05;4.03;;;14.80;89.00;;;;;;12561613;28;20025;-73
2023/10/30 02:54:42;;;;;;;5.00;3.42;;;14.80;89.00;;;;;;12544115;28;20033;-73
2023/10/30 03:00:43;;;;;;;4.97;4.13;;;14.80;89.00;;;;;;12560960;28;20033;-73
2023/10/30 03:06:45;;;;;;;5.53;3.58;;;14.80;89.00;;;;;;12543087;28;20357;-73
2023/10/30 03:12:47;;;;;;;7.63;3.78;;;14.80;89.00;;;;;;12543311;28;20036;-73
2023/10/30 03:18:50;;;;;;;11.23;3.75;;;14.90;89.00;;;;;;12542973;28;20036;-73
2023/10/30 03:24:51;;;;;;;7.22;3.63;;;14.90;89.00;;;;;;12559889;28;20025;-73
2023/10/30 03:30:53;;;;;;;5.70;4.20;;;14.90;89.10;;;;;;12524903;28;20045;-72
2023/10/30 03:36:55;;;;;;;5.78;3.72;;;14.90;89.10;;;;;;12559240;28;20049;-72
2023/10/30 03:42:57;;;;;;;6.30;3.65;;;15.00;89.20;;;;;;12541427;28;20033;-73
2023/10/30 03:48:58;;;;;;;6.82;4.15;;;14.90;89.10;;;;;;12558881;28;20051;-73
2023/10/30 03:55:03;;;;;;;7.07;4.18;;;14.90;89.10;;;;;;12540862;28;20326;-73
2023/10/30 04:01:06;;;;;;;3.90;2.78;;;14.90;89.10;;;;;;12559662;28;20041;-72
2023/10/30 04:07:08;;;;;;;7.38;4.68;;;14.80;89.10;;;;;;12558644;28;20041;-69
2023/10/30 04:13:10;;;;;;;6.20;4.10;;;14.70;89.00;;;;;;12540705;28;20333;-70
2023/10/30 04:19:11;;;;;;;5.35;4.07;;;14.70;89.10;;;;;;12540102;28;20055;-70
2023/10/30 04:25:14;;;;;;;5.22;3.30;;;14.70;89.30;;;;;;12557108;28;20330;-71
2023/10/30 04:31:15;;;;;;;5.55;3.70;;;14.70;89.50;;;;;;12556808;28;20033;-71
2023/10/30 04:37:19;;;;;;;6.72;2.78;;;14.80;89.60;;;;;;12556302;28;20048;-71
2023/10/30 04:43:21;;;;;;;6.82;3.95;;;14.80;89.50;;;;;;12556110;28;20033;-71
2023/10/30 04:49:23;;;;;;;4.75;3.13;;;14.80;89.50;;;;;;12555941;28;20040;-71
2023/10/30 04:55:24;;;;;;;3.50;2.00;;;14.90;89.40;;;;;;12555573;28;20044;-71
2023/10/30 05:01:26;;;;;;;6.03;3.70;;;15.00;89.50;;;;;;12555416;28;20036;-71
2023/10/30 05:07:28;;;;;;;3.63;2.33;;;15.20;89.50;;;;;;12537485;28;20036;-71
2023/10/30 05:13:29;;;;;;;3.75;2.42;;;15.30;89.40;;;;;;12555881;28;20464;-71
2023/10/30 05:19:31;;;;;;;4.72;2.65;;;15.60;89.40;;;;;;12554663;28;20048;-71
2023/10/30 05:25:33;;;;;;;5.25;3.63;;;15.80;89.10;;;;;;12537210;28;20048;-71
2023/10/30 05:31:34;;;;;;;4.70;2.85;;;15.80;88.90;;;;;;12570084;28;20048;-71
2023/10/30 05:37:36;;;;;;;4.60;2.42;;;15.80;88.90;;;;;;12554558;28;20033;-71
2023/10/30 05:43:37;;;;;;;5.45;3.42;;;15.90;89.00;;;;;;12554086;28;20029;-71
2023/10/30 05:49:39;;;;;;;6.38;3.35;;;15.90;88.90;;;;;;12554694;28;20036;-71
2023/10/30 05:55:42;;;;;;;4.80;2.88;;;15.80;88.90;;;;;;12563116;28;20036;-71
2023/10/30 06:01:44;;;;;;;4.13;2.63;;;15.90;88.90;;;;;;12563788;28;20032;-71
2023/10/30 06:07:46;;;;;;;3.83;2.55;;;16.00;88.90;;;;;;12563527;28;20039;-70
2023/10/30 06:13:48;;;;;;;5.63;2.75;;;16.00;88.90;;;;;;12563252;28;20036;-71
2023/10/30 06:19:49;;;;;;;6.25;3.35;;;16.00;89.00;;;;;;12528906;28;20472;-71
2023/10/30 06:25:51;;;;;;;4.32;2.35;;;16.10;89.00;;;;;;12562677;28;20033;-71
2023/10/30 06:31:53;;;;;;;5.38;2.55;;;16.20;88.90;;;;;;12544415;28;20051;-71
2023/10/30 06:37:55;;;;;;;4.05;2.45;;;16.20;88.90;;;;;;12560720;28;20040;-71
2023/10/30 06:43:56;;;;;;;4.53;2.92;;;16.30;88.70;;;;;;12560897;28;20036;-71
2023/10/30 06:49:58;;;;;;;2.42;1.90;;;16.30;88.70;;;;;;12561512;28;20036;-71
2023/10/30 06:56:00;;;;;;;4.10;2.38;;;16.50;89.00;;;;;;12562342;28;20029;-71
2023/10/30 07:02:21;;;;;;;4.75;2.30;;;16.70;88.70;;;;;;12560123;28;20028;-71
2023/10/30 07:08:22;;;;;;;4.72;2.03;;;16.80;88.40;;;;;;12560090;28;20033;-71
2023/10/30 07:14:26;;;;;;;4.47;2.38;;;16.90;88.40;;;;;;12560175;28;20452;-70
2023/10/30 07:26:51;;;;;;;4.47;1.40;;;17.00;88.40;;;;;;12559834;28;20040;-69
2023/10/30 07:32:53;;;;;;;2.42;1.98;;;17.00;88.30;;;;;;12559237;28;20040;-70
2023/10/30 07:39:16;;;;;;;5.40;2.60;;;17.00;88.40;;;;;;12559187;28;20029;-71
2023/10/30 07:45:18;;;;;;;4.32;2.33;;;17.00;88.50;;;;;;12559045;28;20032;-70
2023/10/30 07:51:20;;;;;;;3.38;1.85;;;16.90;88.80;;;;;;12559400;28;20036;-71
2023/10/30 07:57:23;;;;;;;4.90;2.88;;;17.00;88.90;;;;;;12558403;28;20029;-69
2023/10/30 08:03:24;;;;;;;4.65;2.33;;;17.20;88.70;;;;;;12540150;28;20441;-72
2023/10/30 08:09:26;;;;;;;5.40;2.30;;;17.10;88.80;;;;;;12557830;28;20037;-69
2023/10/30 08:15:29;;;;;;;5.90;3.47;;;16.90;89.20;;;;;;12556461;28;20036;-72
2023/10/30 08:21:31;;;;;;;4.72;1.95;;;17.00;89.20;;;;;;12557301;28;20029;-70
2023/10/30 08:27:35;;;;;;;4.38;2.10;;;16.90;89.40;;;;;;12557063;28;20029;-70
2023/10/30 08:33:40;;;;;;;4.57;2.80;;;17.00;89.40;;;;;;12556355;28;20036;-70
2023/10/30 08:39:46;;;;;;;5.32;3.08;;;17.00;89.50;;;;;;12555353;28;20052;-70
2023/10/30 08:45:50;;;;;;;2.55;1.75;;;17.00;89.60;;;;;;12537769;28;20047;-69
2023/10/30 08:51:54;;;;;;;5.75;2.05;;;17.10;89.50;;;;;;12521815;28;20037;-69
2023/10/30 08:58:00;;;;;;;3.25;2.50;;;17.20;89.40;;;;;;12555515;28;20044;-70
2023/10/30 09:04:02;;;;;;;1.95;1.52;;;17.10;89.40;;;;;;12555155;28;20337;-69
2023/10/30 09:10:05;;;;;;;3.80;2.40;;;17.00;89.50;;;;;;12555179;28;20040;-69
2023/10/30 09:16:08;;;;;;;5.22;2.00;;;17.00;89.60;;;;;;12536939;28;20025;-69
2023/10/30 09:22:14;;;;;;;4.68;2.20;;;17.00;89.70;;;;;;12554781;28;20041;-70
2023/10/30 09:28:16;;;;;;;8.10;3.58;;;16.90;89.90;;;;;;12554237;28;20029;-70
2023/10/30 09:34:19;;;;;;;4.07;2.20;;;17.00;89.90;;;;;;12576971;22;20474;-70
2023/10/30 09:40:31;;;;;;;4.88;2.88;;;16.80;89.90;;;;;;12654316;28;20052;-69
2023/10/30 09:46:33;;;;;;;5.40;3.20;;;16.90;90.00;;;;;;12619878;28;20106;-70
2023/10/30 09:52:36;;;;;;;3.50;2.00;;;17.00;89.90;;;;;;12654121;28;20432;-70
2023/10/30 09:58:38;;;;;;;8.10;3.35;;;17.00;89.90;;;;;;12653723;28;20043;-69
2023/10/30 10:04:41;;;;;;;10.40;4.57;;;17.10;89.80;;;;;;12653689;28;20023;-73
2023/10/30 10:11:05;;;;;;;10.73;5.97;;;16.90;89.60;;;;;;12653556;28;20440;-73
2023/10/30 10:17:08;;;;;;;23.55;5.38;;;16.70;90.10;;;;;;12652756;28;20055;-72
2023/10/30 10:23:19;;;;;;;4.97;3.00;;;16.60;90.20;;;;;;12653299;28;20039;-71
2023/10/30 10:29:35;;;;;;;4.65;2.33;;;16.50;90.40;;;;;;12653787;28;20028;-69
2023/10/30 10:35:41;;;;;;;7.75;2.60;;;16.60;90.40;;;;;;12635094;28;20028;-69
2023/10/30 10:41:54;;;;;;;7.88;2.70;;;16.80;90.50;;;;;;12680107;28;20538;-69
2023/10/30 10:47:58;;;;;;;3.85;2.10;;;16.90;90.30;;;;;;12678880;28;20028;-70
2023/10/30 10:54:10;;;;;;;6.07;2.60;;;17.10;90.10;;;;;;12659104;28;20456;-70
2023/10/30 11:00:31;;;;;;;4.90;3.33;;;17.00;90.00;;;;;;12593470;28;20047;-69
2023/10/30 11:06:41;;;;;;;4.88;2.90;;;17.10;90.10;;;;;;12610821;28;20032;-69
2023/10/30 11:13:10;;;;;;;5.93;2.78;;;17.10;90.10;;;;;;12643031;28;20039;-68
2023/10/30 11:19:18;;;;;;;7.07;3.17;;;17.10;90.20;;;;;;12593555;28;20463;-68
2023/10/30 11:25:39;;;;;;;6.13;2.80;;;17.20;90.20;;;;;;12604149;28;20047;-69
2023/10/30 11:31:51;;;;;;;7.93;2.65;;;17.30;90.00;;;;;;12604484;28;20067;-68
2023/10/30 11:37:54;;;;;;;2.20;1.38;;;17.40;90.10;;;;;;12603713;28;20404;-68
2023/10/30 11:44:11;;;;;;;5.68;2.13;;;17.40;89.90;;;;;;12603810;28;20040;-68
2023/10/30 11:50:13;;;;;;;4.93;2.78;;;17.40;90.00;;;;;;12586347;28;20045;-68
2023/10/30 11:56:17;;;;;;;4.05;2.42;;;17.50;90.00;;;;;;12613420;28;20032;-68
2023/10/30 12:02:20;;;;;;;3.63;2.03;;;17.50;89.80;;;;;;12606794;28;20033;-68
2023/10/30 12:08:22;;;;;;;4.53;2.03;;;17.50;89.90;;;;;;12608393;28;20044;-71
2023/10/30 12:14:25;;;;;;;3.75;2.20;;;17.50;89.90;;;;;;12622984;28;20032;-71
2023/10/30 12:20:27;;;;;;;4.60;2.17;;;17.60;89.80;;;;;;12605484;28;20330;-71
2023/10/30 12:26:33;;;;;;;6.07;3.45;;;17.60;89.80;;;;;;12606379;28;20048;-71
2023/10/30 12:32:35;;;;;;;7.65;2.47;;;17.60;89.90;;;;;;12605261;28;20055;-69
2023/10/30 12:38:37;;;;;;;9.10;4.15;;;17.50;89.80;;;;;;12606018;28;20321;-68
2023/10/30 12:44:39;;;;;;;6.25;3.58;;;17.30;89.90;;;;;;12605878;28;20425;-68
2023/10/30 12:50:40;;;;;;;4.90;3.38;;;17.30;90.20;;;;;;12605680;28;20048;-68
2023/10/30 12:56:42;;;;;;;4.95;2.67;;;17.30;90.30;;;;;;12604233;28;20367;-68
2023/10/30 13:02:44;;;;;;;4.53;3.03;;;17.50;90.10;;;;;;12604652;28;20024;-68
2023/10/30 13:08:46;;;;;;;7.43;4.35;;;17.50;90.10;;;;;;12604957;28;20024;-68
2023/10/30 13:14:48;;;;;;;4.47;2.55;;;17.30;90.10;;;;;;12605321;28;20036;-68
2023/10/30 13:20:49;;;;;;;4.68;2.40;;;17.40;90.30;;;;;;12603291;28;20036;-68
2023/10/30 13:26:51;;;;;;;7.80;3.97;;;17.40;90.20;;;;;;12604957;28;20337;-68
2023/10/30 13:32:56;;;;;;;3.10;2.03;;;17.40;90.20;;;;;;12604213;28;20032;-69
2023/10/30 13:38:57;;;;;;;6.43;3.33;;;17.40;90.30;;;;;;12602729;28;20040;-68
2023/10/30 13:44:59;;;;;;;6.25;3.78;;;17.40;90.20;;;;;;12603818;28;20464;-68
2023/10/30 13:51:01;;;;;;;5.95;3.58;;;17.40;90.20;;;;;;12603672;28;20028;-68
2023/10/30 13:57:02;;;;;;;8.18;5.10;;;17.40;90.20;;;;;;12603428;28;20039;-68
2023/10/30 14:03:04;;;;;;;5.07;3.35;;;17.40;90.30;;;;;;12602752;28;20341;-69
2023/10/30 14:09:06;;;;;;;8.40;6.22;;;17.30;90.50;;;;;;12603350;28;20032;-71
2023/10/30 14:15:08;;;;;;;12.18;5.85;;;17.30;90.40;;;;;;12609654;28;20028;-71
2023/10/30 14:21:10;;;;;;;8.20;6.30;;;17.20;90.50;;;;;;12611766;28;20047;-72
2023/10/30 14:27:11;;;;;;;7.65;5.13;;;17.20;90.70;;;;;;12613165;28;20340;-71
2023/10/30 14:33:13;;;;;;;11.52;8.48;;;17.20;90.90;;;;;;12612106;28;20029;-72
2023/10/30 14:39:15;;;;;;;7.55;6.18;;;17.30;90.80;;;;;;12611675;28;20451;-72
2023/10/30 14:45:16;;;;;;;9.70;6.68;;;17.20;90.90;;;;;;12610887;28;20024;-71
2023/10/30 14:51:18;;;;;;;8.23;4.43;;;17.30;90.90;;;;;;12641131;28;20447;-72
2023/10/30 14:57:20;;;;;;;9.70;6.82;;;17.20;91.10;;;;;;12660967;28;20356;-71
2023/10/30 15:03:22;;;;;;;8.88;6.35;;;17.30;91.00;;;;;;12661519;28;20031;-71
2023/10/30 15:09:23;;;;;;;9.15;5.57;;;17.30;91.00;;;;;;12659578;28;20043;-72
2023/10/30 15:15:25;;;;;;;8.00;4.57;;;17.30;91.20;;;;;;12660618;28;20498;-71
2023/10/30 15:21:27;;;;;;;7.90;5.70;;;17.40;91.00;;;;;;12660260;28;20040;-72
2023/10/30 15:27:33;;;;;;;7.65;5.38;;;17.40;90.90;;;;;;12658879;28;20344;-72
2023/10/30 15:33:35;;;;;;;9.90;4.40;;;17.30;91.00;;;;;;12659803;28;20032;-72
2023/10/30 15:39:36;;;;;;;9.15;5.45;;;17.50;91.10;;;;;;12659323;28;20039;-72
2023/10/30 15:45:38;;;;;;;8.93;6.20;;;17.60;91.00;;;;;;12659203;28;20024;-72
2023/10/30 15:51:40;;;;;;;9.05;5.50;;;17.60;90.90;;;;;;12659486;28;20040;-71
2023/10/30 15:57:42;;;;;;;12.38;7.63;;;17.60;90.90;;;;;;12659238;28;20035;-71
2023/10/30 16:03:44;;;;;;;11.05;5.80;;;17.60;90.80;;;;;;12655197;28;20024;-72
2023/10/30 16:09:47;;;;;;;9.80;5.22;;;17.70;91.00;;;;;;12657998;28;20035;-72
2023/10/30 16:16:22;;;;;;;8.05;5.30;;;17.80;90.90;;;;;;12640594;28;20051;-72
2023/10/30 16:22:24;;;;;;;7.65;4.93;;;17.90;90.60;;;;;;12657959;28;20051;-71
2023/10/30 16:28:26;;;;;;;10.50;6.30;;;17.90;90.60;;;;;;12657180;28;20028;-72
2023/10/30 16:34:27;;;;;;;11.20;5.60;;;17.90;90.70;;;;;;12655579;28;20034;-72
2023/10/30 16:40:29;;;;;;;14.32;5.40;;;17.90;90.80;;;;;;12655778;28;20042;-72
2023/10/30 16:46:31;;;;;;;23.27;6.35;;;17.90;90.70;;;;;;12655918;28;20028;-71
2023/10/30 16:52:33;;;;;;;19.60;7.47;;;18.00;90.70;;;;;;12654888;28;20032;-72
2023/10/30 16:58:35;;;;;;;12.88;5.95;;;18.00;90.60;;;;;;12655540;28;20032;-71
2023/10/30 17:04:36;;;;;;;34.58;10.82;;;18.10;90.70;;;;;;12656184;28;20024;-72
2023/10/30 17:10:38;;;;;;;25.00;7.13;;;18.20;90.90;;;;;;12655361;28;20035;-71
2023/10/30 17:16:40;;;;;;;35.67;9.43;;;18.30;90.80;;;;;;12655653;28;20027;-69
2023/10/30 17:22:42;;;;;;;33.70;11.32;;;18.40;90.90;;;;;;12637003;28;20444;-68
2023/10/30 17:28:44;;;;;;;39.00;10.43;;;18.50;91.00;;;;;;12654651;28;20034;-68
2023/10/30 17:34:46;;;;;;;48.92;10.75;;;18.50;91.20;;;;;;12638606;22;20457;-69
2023/10/30 17:40:47;;;;;;;26.13;11.48;;;18.60;91.20;;;;;;12554911;28;20067;-71
2023/10/30 17:46:49;;;;;;;18.77;9.15;;;18.60;91.20;;;;;;12553965;28;20017;-72
2023/10/30 17:52:51;;;;;;;32.55;10.82;;;18.60;91.20;;;;;;12536400;28;20353;-71
2023/10/30 17:58:53;;;;;;;34.83;10.38;;;18.70;91.30;;;;;;12536093;28;20048;-71
2023/10/30 18:04:54;;;;;;;22.20;8.50;;;18.70;91.30;;;;;;12553682;28;20040;-71
2023/10/30 18:10:56;;;;;;;45.45;11.23;;;18.70;91.40;;;;;;12553529;28;20051;-72
2023/10/30 18:16:58;;;;;;;37.63;12.15;;;18.70;91.40;;;;;;12553323;28;20037;-71
2023/10/30 18:23:00;;;;;;;42.03;12.77;;;18.80;91.50;;;;;;12553944;28;20035;-71
2023/10/30 18:29:02;;;;;;;52.70;13.88;;;18.70;91.40;;;;;;12553259;28;20033;-72
2023/10/30 18:35:04;;;;;;;41.97;13.05;;;18.80;91.40;;;;;;12553826;28;20043;-72
2023/10/30 18:41:06;;;;;;;58.65;15.20;;;18.80;91.40;;;;;;12535144;28;20041;-71
2023/10/30 18:47:08;;;;;;;45.35;13.60;;;18.90;91.30;;;;;;12552831;28;20032;-68
2023/10/30 18:53:10;;;;;;;43.92;14.52;;;18.90;91.20;;;;;;12553288;28;20029;-69
2023/10/30 18:59:11;;;;;;;57.03;15.93;;;19.00;91.30;;;;;;12536179;28;20083;-70
2023/10/30 19:05:13;;;;;;;48.33;15.02;;;19.00;91.20;;;;;;12543349;28;20041;-68
2023/10/30 19:11:19;;;;;;;38.17;11.55;;;19.00;91.20;;;;;;12543608;28;20030;-69
2023/10/30 19:17:21;;;;;;;42.15;13.32;;;19.00;91.30;;;;;;12494131;28;20048;-69
2023/10/30 19:23:23;;;;;;;50.65;13.13;;;19.10;91.20;;;;;;12510828;28;20025;-69
2023/10/30 19:29:24;;;;;;;46.50;13.93;;;19.10;91.20;;;;;;12492996;28;20052;-68
2023/10/30 19:35:26;;;;;;;58.65;15.38;;;19.20;91.10;;;;;;12511150;28;20029;-69
2023/10/30 19:41:28;;;;;;;70.07;16.25;;;19.20;91.00;;;;;;12509945;28;20029;-69
2023/10/30 19:47:30;;;;;;;41.70;11.95;;;19.20;90.90;;;;;;12510386;28;20041;-70
2023/10/30 19:53:32;;;;;;;47.00;12.48;;;19.30;90.80;;;;;;12492064;28;20327;-69
2023/10/30 19:59:34;;;;;;;44.63;12.60;;;19.30;90.80;;;;;;12533588;28;20056;-69
2023/10/30 20:05:36;;;;;;;32.78;11.18;;;19.30;90.70;;;;;;12540708;28;20052;-69
2023/10/30 20:11:37;;;;;;;41.58;12.52;;;19.30;90.70;;;;;;12540334;28;20044;-69
2023/10/30 20:17:39;;;;;;;50.78;12.45;;;19.40;90.50;;;;;;12523679;28;20377;-68
2023/10/30 20:23:41;;;;;;;44.60;12.23;;;19.40;90.50;;;;;;12557481;28;20044;-69
2023/10/30 20:29:42;;;;;;;40.83;13.60;;;19.50;90.40;;;;;;12557265;28;20025;-69
2023/10/30 20:35:45;;;;;;;54.28;13.13;;;19.50;90.30;;;;;;12539538;28;20471;-70
2023/10/30 20:41:47;;;;;;;45.45;13.07;;;19.40;90.30;;;;;;12556561;28;20039;-69
2023/10/30 20:47:51;;;;;;;56.97;16.10;;;19.50;90.30;;;;;;12556374;28;20357;-69
2023/10/30 20:53:53;;;;;;;31.83;9.48;;;19.50;90.30;;;;;;12556165;28;20024;-69
2023/10/30 20:59:54;;;;;;;57.85;12.88;;;19.50;90.40;;;;;;12555819;28;20033;-69
2023/10/30 21:05:56;;;;;;;44.38;11.25;;;19.50;90.30;;;;;;12538403;28;20025;-70
2023/10/30 21:11:58;;;;;;;39.00;11.98;;;19.50;90.20;;;;;;12555309;28;20040;-69
2023/10/30 21:18:00;;;;;;;22.55;8.93;;;19.50;90.10;;;;;;12555165;28;20033;-69
2023/10/30 21:24:02;;;;;;;62.10;17.15;;;19.50;90.10;;;;;;12554427;28;20033;-70
2023/10/30 21:30:05;;;;;;;50.88;13.55;;;19.50;90.10;;;;;;12554640;28;20033;-69
2023/10/30 21:36:07;;;;;;;36.38;10.32;;;19.50;90.20;;;;;;12554706;28;20353;-70
2023/10/30 21:42:09;;;;;;;28.83;10.45;;;19.50;90.20;;;;;;12554907;28;20323;-71
2023/10/30 21:48:10;;;;;;;34.47;9.95;;;19.40;90.50;;;;;;12554186;28;20397;-73
2023/10/30 21:54:12;;;;;;;30.00;10.55;;;19.30;91.00;;;;;;12554000;28;20033;-72
2023/10/30 22:00:18;;;;;;;35.08;8.23;;;19.30;91.00;;;;;;12536078;28;20039;-71
2023/10/30 22:06:20;;;;;;;17.52;6.78;;;19.30;91.00;;;;;;12553788;28;20021;-69
2023/10/30 22:12:23;;;;;;;15.85;6.75;;;19.20;91.00;;;;;;12553690;28;20037;-69
2023/10/30 22:18:24;;;;;;;10.20;5.22;;;19.10;90.90;;;;;;12553491;28;20028;-69
2023/10/30 22:24:26;;;;;;;9.15;3.65;;;19.10;90.90;;;;;;12553912;28;20036;-68
2023/10/30 22:30:28;;;;;;;8.65;4.10;;;19.00;90.80;;;;;;12553226;28;20384;-69
2023/10/30 22:36:30;;;;;;;10.50;3.58;;;19.00;90.70;;;;;;12558256;28;20043;-69
2023/10/30 22:42:32;;;;;;;11.38;4.53;;;18.90;90.70;;;;;;12544499;28;20029;-69
2023/10/30 22:48:33;;;;;;;7.95;3.97;;;18.90;90.60;;;;;;12544311;28;20041;-69
2023/10/30 22:54:35;;;;;;;4.18;2.00;;;18.90;90.60;;;;;;12561768;28;20029;-69
2023/10/30 23:00:42;;;;;;;5.13;2.42;;;19.00;90.50;;;;;;12561577;28;20499;-69
2023/10/30 23:06:45;;;;;;;5.00;2.03;;;18.80;90.40;;;;;;12543419;28;20044;-69
2023/10/30 23:12:46;;;;;;;6.90;3.03;;;18.80;90.40;;;;;;12560965;28;20055;-68
2023/10/30 23:18:48;;;;;;;5.05;2.90;;;18.70;90.50;;;;;;12560581;28;20434;-68
2023/10/30 23:24:50;;;;;;;4.53;2.58;;;18.80;90.40;;;;;;12560777;28;20048;-69
2023/10/30 23:30:52;;;;;;;7.35;2.60;;;18.80;90.20;;;;;;12561432;28;20029;-68
2023/10/30 23:36:53;;;;;;;12.52;3.65;;;18.70;90.20;;;;;;12542367;28;20041;-69
2023/10/30 23:42:55;;;;;;;5.65;2.45;;;18.60;90.30;;;;;;12559444;28;20036;-72
2023/10/30 23:48:57;;;;;;;11.55;3.60;;;18.50;90.30;;;;;;12541812;28;20033;-72
2023/10/30 23:54:59;;;;;;;7.13;2.97;;;18.50;90.30;;;;;;12558983;28;20032;-69
